Time;durP1;ratioP1;P1;durP2;ratioP2;P2;SDS_P1;SDS_P2;PMS_P1;PMS_P2;Temp;Humidity;BMP_temperature;BMP_pressure;BME280_temperature;BME280_humidity;BME280_pressure;Samples;Min_cycle;Max_cycle;Signal;HPM_P1;HPM_P2
2023/12/30 00:01:36;;;;;;;5.75;2.30;;;6.50;99.90;;;;;;5061174;28;20035;-68
2023/12/30 00:04:02;;;;;;;6.07;1.95;;;6.50;99.90;;;;;;5060727;28;20049;-68
2023/12/30 00:06:28;;;;;;;8.95;2.20;;;6.50;99.90;;;;;;5060005;28;20051;-68
2023/12/30 00:08:53;;;;;;;10.68;2.30;;;6.50;99.90;;;;;;5060843;28;20029;-68
2023/12/30 00:11:19;;;;;;;5.50;2.53;;;6.40;99.90;;;;;;5060799;28;20526;-70
2023/12/30 00:13:45;;;;;;;9.60;2.80;;;6.50;99.90;;;;;;5060672;28;20017;-68
2023/12/30 00:16:10;;;;;;;9.40;3.28;;;6.40;99.90;;;;;;5060664;28;20106;-66
2023/12/30 00:18:37;;;;;;;11.35;3.55;;;6.40;99.90;;;;;;5060742;28;20024;-68
2023/12/30 00:21:02;;;;;;;9.05;2.58;;;6.40;99.90;;;;;;5060891;28;20097;-68
2023/12/30 00:23:28;;;;;;;8.63;2.47;;;6.40;99.90;;;;;;5060498;28;20045;-69
2023/12/30 00:25:54;;;;;;;7.55;2.50;;;6.40;99.90;;;;;;5060169;28;20505;-68
2023/12/30 00:28:21;;;;;;;10.88;3.05;;;6.40;99.90;;;;;;5059461;28;20028;-71
2023/12/30 00:30:46;;;;;;;6.75;2.95;;;6.30;99.90;;;;;;5061960;28;20058;-67
2023/12/30 00:33:12;;;;;;;7.22;2.90;;;6.40;99.90;;;;;;5061244;28;21674;-68
2023/12/30 00:35:38;;;;;;;8.90;2.58;;;6.40;99.90;;;;;;5060655;28;20063;-66
2023/12/30 00:38:03;;;;;;;10.65;2.40;;;6.30;99.90;;;;;;5062059;28;20033;-67
2023/12/30 00:40:29;;;;;;;15.68;3.00;;;6.30;99.90;;;;;;5059902;28;20033;-66
2023/12/30 00:42:54;;;;;;;9.73;4.25;;;6.20;99.90;;;;;;5059654;28;20113;-68
2023/12/30 00:45:20;;;;;;;9.48;3.22;;;6.20;99.90;;;;;;5061757;28;20532;-70
2023/12/30 00:47:45;;;;;;;9.95;2.75;;;6.10;99.90;;;;;;5061832;28;20021;-67
2023/12/30 00:50:11;;;;;;;12.90;3.50;;;6.10;99.90;;;;;;5060142;28;20124;-69
2023/12/30 00:52:37;;;;;;;5.38;2.28;;;6.10;99.90;;;;;;5061801;28;20035;-71
2023/12/30 00:55:02;;;;;;;6.75;1.75;;;6.10;99.90;;;;;;5060172;28;20028;-69
2023/12/30 00:57:28;;;;;;;5.57;1.90;;;6.10;99.90;;;;;;5061592;28;20386;-65
2023/12/30 00:59:54;;;;;;;5.97;1.88;;;6.10;99.90;;;;;;5060285;28;20033;-65
2023/12/30 01:02:19;;;;;;;8.60;2.20;;;6.10;99.90;;;;;;5059951;28;20041;-66
2023/12/30 01:04:45;;;;;;;8.07;2.63;;;6.20;99.90;;;;;;5060006;28;20029;-72
2023/12/30 01:07:10;;;;;;;7.07;2.00;;;6.10;99.90;;;;;;5061269;28;21901;-65
2023/12/30 01:09:36;;;;;;;7.80;1.80;;;6.20;99.90;;;;;;5059578;28;20029;-69
2023/12/30 01:12:01;;;;;;;5.28;2.05;;;6.20;99.90;;;;;;5061219;28;20059;-69
2023/12/30 01:14:27;;;;;;;7.32;1.67;;;6.20;99.90;;;;;;5061412;28;20120;-66
2023/12/30 01:16:52;;;;;;;6.53;1.80;;;6.30;99.90;;;;;;5061221;28;20036;-66
2023/12/30 01:19:18;;;;;;;6.25;1.65;;;6.30;99.90;;;;;;5060547;28;20025;-68
2023/12/30 01:21:43;;;;;;;6.10;1.70;;;6.20;99.90;;;;;;5059828;28;20029;-69
2023/12/30 01:24:10;;;;;;;6.00;1.80;;;6.20;99.90;;;;;;5060307;28;20021;-70
2023/12/30 01:26:38;;;;;;;6.82;1.52;;;6.20;99.90;;;;;;5058462;28;20017;-68
2023/12/30 01:29:03;;;;;;;9.85;2.72;;;6.20;99.90;;;;;;5059080;28;20088;-70
2023/12/30 01:31:29;;;;;;;8.75;1.60;;;6.20;99.90;;;;;;5058325;28;20076;-68
2023/12/30 01:33:55;;;;;;;6.97;1.85;;;6.10;99.90;;;;;;5058315;28;20027;-68
2023/12/30 01:36:21;;;;;;;9.55;1.73;;;6.10;99.90;;;;;;5057811;28;20468;-68
2023/12/30 01:38:46;;;;;;;9.32;1.90;;;6.20;99.90;;;;;;5059321;28;20090;-68
2023/12/30 01:41:12;;;;;;;8.82;1.60;;;6.20;99.90;;;;;;5059323;28;20059;-68
2023/12/30 01:43:37;;;;;;;6.13;1.92;;;6.20;99.90;;;;;;5058014;28;20024;-68
2023/12/30 01:46:08;;;;;;;11.55;1.75;;;6.20;99.90;;;;;;5059088;28;20499;-67
2023/12/30 01:48:34;;;;;;;11.00;1.52;;;6.20;99.90;;;;;;5057863;28;20025;-67
2023/12/30 01:51:01;;;;;;;10.43;1.77;;;6.20;99.90;;;;;;5059234;28;20094;-67
2023/12/30 01:53:28;;;;;;;5.05;1.73;;;6.20;99.90;;;;;;5058755;28;20025;-66
2023/12/30 01:55:55;;;;;;;7.03;1.30;;;6.20;99.90;;;;;;5057970;28;20052;-66
2023/12/30 01:58:21;;;;;;;7.60;1.48;;;6.20;99.90;;;;;;5058611;28;20361;-69
2023/12/30 02:00:54;;;;;;;9.65;1.80;;;6.20;99.90;;;;;;5058169;28;20025;-68
2023/12/30 02:03:21;;;;;;;9.00;2.03;;;6.20;99.90;;;;;;5058731;28;20060;-69
2023/12/30 02:05:47;;;;;;;6.55;1.55;;;6.10;99.90;;;;;;5058802;28;20443;-67
2023/12/30 02:08:17;;;;;;;9.30;1.52;;;6.10;99.90;;;;;;5058793;28;20032;-68
2023/12/30 02:10:42;;;;;;;9.43;1.58;;;6.10;99.90;;;;;;5056704;28;20520;-68
2023/12/30 02:13:08;;;;;;;13.95;1.95;;;6.00;99.90;;;;;;5056865;28;20037;-68
2023/12/30 02:15:35;;;;;;;11.68;1.35;;;6.10;99.90;;;;;;5059074;28;20032;-69
2023/12/30 02:18:01;;;;;;;8.73;1.65;;;6.10;99.90;;;;;;5058803;28;20088;-67
2023/12/30 02:20:28;;;;;;;9.30;1.55;;;6.10;99.90;;;;;;5058568;28;20480;-68
2023/12/30 02:22:53;;;;;;;8.07;1.50;;;6.10;99.90;;;;;;5060713;28;20667;-66
2023/12/30 02:25:19;;;;;;;15.10;1.50;;;6.10;99.90;;;;;;5062834;28;20047;-66
2023/12/30 02:27:45;;;;;;;14.32;1.65;;;6.20;99.90;;;;;;5061433;28;20029;-67
2023/12/30 02:30:12;;;;;;;6.82;1.75;;;6.10;99.90;;;;;;5062594;28;20037;-67
2023/12/30 02:32:38;;;;;;;11.70;1.70;;;6.20;99.90;;;;;;5062491;28;20048;-69
2023/12/30 02:35:04;;;;;;;10.30;1.80;;;6.10;99.90;;;;;;5062973;28;20029;-67
2023/12/30 02:37:30;;;;;;;8.88;1.65;;;6.10;99.90;;;;;;5062699;28;20040;-66
2023/12/30 02:39:55;;;;;;;12.93;1.85;;;6.20;99.90;;;;;;5062493;28;20028;-68
2023/12/30 02:42:21;;;;;;;6.30;1.90;;;6.10;99.90;;;;;;5062546;28;20033;-67
2023/12/30 02:44:47;;;;;;;7.55;1.63;;;6.10;99.90;;;;;;5062500;28;20029;-67
2023/12/30 02:47:12;;;;;;;7.25;1.75;;;6.10;99.90;;;;;;5062435;28;20036;-66
2023/12/30 02:49:42;;;;;;;14.20;2.25;;;6.10;99.90;;;;;;5062325;28;20039;-67
2023/12/30 02:52:08;;;;;;;13.48;1.80;;;6.10;99.90;;;;;;5062200;28;20037;-68
2023/12/30 02:54:35;;;;;;;11.70;2.10;;;6.00;99.90;;;;;;5061198;28;20055;-66
2023/12/30 02:57:02;;;;;;;6.68;1.55;;;6.10;99.90;;;;;;5061282;28;20032;-69
2023/12/30 02:59:28;;;;;;;8.25;2.13;;;5.90;99.90;;;;;;5060697;28;20029;-69
2023/12/30 03:01:54;;;;;;;14.93;2.45;;;6.10;99.90;;;;;;5062193;28;20040;-67
2023/12/30 03:04:20;;;;;;;15.00;1.70;;;6.00;99.90;;;;;;5061833;28;20013;-67
2023/12/30 03:06:45;;;;;;;13.23;2.13;;;6.00;99.90;;;;;;5061977;28;20089;-66
2023/12/30 03:09:11;;;;;;;22.52;2.10;;;6.00;99.90;;;;;;5062068;28;20025;-67
2023/12/30 03:11:37;;;;;;;10.63;1.80;;;6.00;99.90;;;;;;5062047;28;20044;-67
2023/12/30 03:14:02;;;;;;;13.82;2.55;;;6.00;99.90;;;;;;5061939;28;20087;-69
2023/12/30 03:16:28;;;;;;;15.70;1.85;;;6.10;99.90;;;;;;5060652;28;20059;-68
2023/12/30 03:18:55;;;;;;;7.50;1.80;;;6.10;99.90;;;;;;5060197;28;20079;-68
2023/12/30 03:21:20;;;;;;;14.98;1.70;;;6.20;99.90;;;;;;5061913;28;20036;-68
2023/12/30 03:23:46;;;;;;;12.52;1.65;;;6.10;99.90;;;;;;5060356;28;20123;-70
2023/12/30 03:26:12;;;;;;;22.17;1.95;;;6.00;99.90;;;;;;5061528;28;20018;-67
2023/12/30 03:28:38;;;;;;;12.13;2.20;;;6.10;99.90;;;;;;5061026;28;20021;-69
2023/12/30 03:31:04;;;;;;;11.27;1.75;;;6.10;99.90;;;;;;5061444;28;20025;-67
2023/12/30 03:33:30;;;;;;;12.20;1.48;;;6.00;99.90;;;;;;5059529;28;20131;-66
2023/12/30 03:35:55;;;;;;;9.65;1.45;;;6.10;99.90;;;;;;5061648;28;20467;-67
2023/12/30 03:38:21;;;;;;;5.10;1.30;;;6.00;99.90;;;;;;5061578;28;20020;-66
2023/12/30 03:40:47;;;;;;;6.97;1.30;;;6.10;99.90;;;;;;5060211;28;20082;-69
2023/12/30 03:43:13;;;;;;;12.38;1.60;;;6.10;99.90;;;;;;5061278;28;20029;-67
2023/12/30 03:45:39;;;;;;;6.47;1.48;;;6.30;99.90;;;;;;5061518;28;20021;-68
2023/12/30 03:48:06;;;;;;;14.05;1.63;;;6.20;99.90;;;;;;5060104;28;20536;-68
2023/12/30 03:50:31;;;;;;;10.68;1.40;;;6.20;99.90;;;;;;5061559;28;20112;-67
2023/12/30 03:52:57;;;;;;;11.70;2.13;;;6.20;99.90;;;;;;5061351;28;20516;-69
2023/12/30 03:55:22;;;;;;;10.02;1.60;;;6.20;99.90;;;;;;5059885;28;20031;-67
2023/12/30 03:57:48;;;;;;;9.65;1.55;;;6.30;99.90;;;;;;5059364;28;20045;-68
2023/12/30 04:00:14;;;;;;;10.75;1.45;;;6.30;99.90;;;;;;5058803;28;20104;-66
2023/12/30 04:02:40;;;;;;;13.77;1.83;;;6.30;99.90;;;;;;5060103;28;20049;-67
2023/12/30 04:05:06;;;;;;;11.18;1.85;;;6.40;99.90;;;;;;5059507;28;20484;-66
2023/12/30 04:07:32;;;;;;;12.48;1.88;;;6.30;99.90;;;;;;5061045;28;20048;-67
2023/12/30 04:09:57;;;;;;;12.07;1.65;;;6.30;99.90;;;;;;5061087;28;20020;-67
2023/12/30 04:12:23;;;;;;;7.13;1.27;;;6.30;99.90;;;;;;5060785;28;20029;-69
2023/12/30 04:14:49;;;;;;;14.88;1.90;;;6.30;99.90;;;;;;5059441;28;20966;-69
2023/12/30 04:17:15;;;;;;;15.38;2.10;;;6.20;99.90;;;;;;5060618;28;20116;-68
2023/12/30 04:19:40;;;;;;;9.75;1.35;;;6.20;99.90;;;;;;5060032;28;20063;-68
2023/12/30 04:22:06;;;;;;;16.90;1.63;;;6.10;99.90;;;;;;5060234;28;20044;-69
2023/12/30 04:24:31;;;;;;;4.85;0.93;;;6.10;99.90;;;;;;5060327;28;20056;-69
2023/12/30 04:26:57;;;;;;;9.82;1.42;;;6.10;99.90;;;;;;5058498;28;20032;-68
2023/12/30 04:29:23;;;;;;;14.95;1.52;;;6.10;99.90;;;;;;5059247;28;20036;-68
2023/12/30 04:31:49;;;;;;;14.27;1.45;;;6.10;99.90;;;;;;5060576;28;20033;-69
2023/12/30 04:34:14;;;;;;;11.13;1.40;;;6.10;99.90;;;;;;5058365;28;20029;-67
2023/12/30 04:36:40;;;;;;;12.50;1.77;;;6.10;99.90;;;;;;5060204;28;20113;-69
2023/12/30 04:39:05;;;;;;;8.70;1.17;;;6.00;99.90;;;;;;5059709;28;20073;-71
2023/12/30 04:41:31;;;;;;;11.65;2.05;;;6.10;99.90;;;;;;5060406;28;20032;-69
2023/12/30 04:43:57;;;;;;;15.23;1.95;;;6.10;99.90;;;;;;5060016;28;20049;-68
2023/12/30 04:46:22;;;;;;;11.93;1.77;;;6.10;99.90;;;;;;5058300;28;20041;-68
2023/12/30 04:48:52;;;;;;;11.35;1.75;;;6.10;99.90;;;;;;5059162;28;20029;-67
2023/12/30 04:51:18;;;;;;;10.07;1.65;;;6.10;99.90;;;;;;5059923;28;20033;-68
2023/12/30 04:53:43;;;;;;;6.88;1.05;;;6.10;99.90;;;;;;5059187;28;20061;-72
2023/12/30 04:56:17;;;;;;;12.02;1.95;;;6.10;99.90;;;;;;5059361;28;20428;-69
2023/12/30 04:58:43;;;;;;;14.07;1.95;;;6.10;99.90;;;;;;5055738;28;20496;-69
2023/12/30 05:01:08;;;;;;;12.85;1.83;;;6.20;99.90;;;;;;5057357;28;20105;-67
2023/12/30 05:03:35;;;;;;;9.88;1.70;;;6.20;99.90;;;;;;5059661;28;20045;-68
2023/12/30 05:06:01;;;;;;;16.15;1.63;;;6.20;99.90;;;;;;5059624;28;20029;-67
2023/12/30 05:08:28;;;;;;;9.68;1.88;;;6.20;99.90;;;;;;5059903;28;20164;-68
2023/12/30 05:10:53;;;;;;;12.77;1.67;;;6.20;99.90;;;;;;5059638;28;21101;-67
2023/12/30 05:13:19;;;;;;;7.10;1.60;;;6.20;99.90;;;;;;5059450;28;20025;-68
2023/12/30 05:15:45;;;;;;;9.85;2.00;;;6.20;99.90;;;;;;5059737;28;20025;-67
2023/12/30 05:18:11;;;;;;;9.02;1.50;;;6.20;99.90;;;;;;5057898;28;20033;-66
2023/12/30 05:20:37;;;;;;;8.95;1.58;;;6.20;99.90;;;;;;5059041;28;20055;-70
2023/12/30 05:23:03;;;;;;;9.50;1.67;;;6.20;99.90;;;;;;5055420;28;20034;-72
2023/12/30 05:25:29;;;;;;;15.35;2.00;;;6.20;99.90;;;;;;5058830;28;20467;-68
2023/12/30 05:27:54;;;;;;;13.13;1.95;;;6.20;99.90;;;;;;5058759;28;20037;-69
2023/12/30 05:30:20;;;;;;;8.30;1.52;;;6.20;99.90;;;;;;5059041;28;20033;-69
2023/12/30 05:32:45;;;;;;;9.55;1.15;;;6.20;99.90;;;;;;5059291;28;20846;-74
2023/12/30 05:35:11;;;;;;;11.20;1.40;;;6.10;99.90;;;;;;5057874;28;20032;-69
2023/12/30 05:37:36;;;;;;;16.05;2.05;;;6.20;99.90;;;;;;5058803;28;20024;-70
2023/12/30 05:40:06;;;;;;;7.75;1.40;;;6.20;99.90;;;;;;5059226;28;20020;-71
2023/12/30 05:42:31;;;;;;;11.43;1.40;;;6.20;99.90;;;;;;5059187;28;20076;-71
2023/12/30 05:44:57;;;;;;;15.50;1.77;;;6.20;99.90;;;;;;5057912;28;20059;-69
2023/12/30 05:47:23;;;;;;;10.65;1.40;;;6.20;99.90;;;;;;5058886;28;20071;-70
2023/12/30 05:49:49;;;;;;;5.85;1.17;;;6.20;99.90;;;;;;5056751;28;20120;-71
2023/12/30 05:52:15;;;;;;;11.43;1.83;;;6.10;99.90;;;;;;5058221;28;20051;-69
2023/12/30 05:54:40;;;;;;;11.82;1.65;;;6.10;99.90;;;;;;5058285;28;20040;-72
2023/12/30 05:57:06;;;;;;;8.60;1.58;;;6.10;99.90;;;;;;5056155;28;20115;-70
2023/12/30 05:59:31;;;;;;;9.07;1.85;;;6.10;99.90;;;;;;5059074;28;20039;-70
2023/12/30 06:01:58;;;;;;;9.63;1.55;;;6.10;99.90;;;;;;5058656;28;20037;-70
2023/12/30 06:04:25;;;;;;;8.95;1.85;;;6.00;99.90;;;;;;5058688;28;20017;-70
2023/12/30 06:06:51;;;;;;;12.40;1.77;;;6.00;99.90;;;;;;5057169;28;20025;-68
2023/12/30 06:09:17;;;;;;;9.57;1.45;;;6.00;99.90;;;;;;5057361;28;20397;-68
2023/12/30 06:11:42;;;;;;;14.63;1.50;;;5.90;99.90;;;;;;5056737;28;20032;-70
2023/12/30 06:14:08;;;;;;;8.73;2.03;;;5.90;99.90;;;;;;5055556;28;20083;-69
2023/12/30 06:16:34;;;;;;;8.95;1.42;;;5.90;99.90;;;;;;5056883;28;20021;-69
2023/12/30 06:18:59;;;;;;;16.60;2.50;;;5.90;99.90;;;;;;5058252;28;20067;-66
2023/12/30 06:21:25;;;;;;;15.70;2.05;;;5.90;99.90;;;;;;5057676;28;20029;-69
2023/12/30 06:23:50;;;;;;;10.75;2.20;;;5.90;99.90;;;;;;5055720;28;20047;-68
2023/12/30 06:26:16;;;;;;;12.05;2.30;;;5.90;99.90;;;;;;5055408;28;20036;-69
2023/12/30 06:28:42;;;;;;;14.90;2.00;;;5.90;99.90;;;;;;5057343;28;20025;-69
2023/12/30 06:31:07;;;;;;;13.93;1.60;;;5.90;99.90;;;;;;5057533;28;20033;-69
2023/12/30 06:33:33;;;;;;;13.82;2.22;;;5.80;99.90;;;;;;5059588;28;20049;-68
2023/12/30 06:35:59;;;;;;;8.45;1.50;;;5.90;99.90;;;;;;5059853;28;20028;-69
2023/12/30 06:38:24;;;;;;;18.38;2.25;;;5.90;99.90;;;;;;5055185;28;20057;-72
2023/12/30 06:40:50;;;;;;;8.85;1.73;;;5.90;99.90;;;;;;5057499;28;20025;-67
2023/12/30 06:43:16;;;;;;;17.35;2.30;;;5.90;99.90;;;;;;5059128;28;20037;-70
2023/12/30 06:45:42;;;;;;;14.07;2.00;;;5.80;99.90;;;;;;5053373;28;20143;-70
2023/12/30 06:48:08;;;;;;;13.13;2.00;;;5.90;99.90;;;;;;5055365;28;20025;-71
2023/12/30 06:50:34;;;;;;;12.07;1.60;;;5.90;99.90;;;;;;5057942;28;20026;-71
2023/12/30 06:53:00;;;;;;;17.55;1.90;;;5.90;99.90;;;;;;5056943;28;20048;-68
2023/12/30 06:55:26;;;;;;;10.45;1.55;;;5.90;99.90;;;;;;5059010;28;20032;-70
2023/12/30 06:57:51;;;;;;;12.43;1.98;;;5.90;99.90;;;;;;5059802;28;20427;-68
2023/12/30 07:00:17;;;;;;;15.07;2.15;;;5.90;99.90;;;;;;5057364;28;20064;-67
2023/12/30 07:02:44;;;;;;;12.77;1.83;;;5.90;99.90;;;;;;5058217;28;20064;-69
2023/12/30 07:05:10;;;;;;;11.27;2.08;;;6.00;99.90;;;;;;5059806;28;20021;-68
2023/12/30 07:07:36;;;;;;;14.57;2.03;;;5.90;99.90;;;;;;5059964;28;20021;-71
2023/12/30 07:10:03;;;;;;;13.95;1.85;;;5.90;99.90;;;;;;5063498;28;20021;-69
2023/12/30 07:12:29;;;;;;;16.15;1.60;;;5.90;99.90;;;;;;5062970;28;20043;-70
2023/12/30 07:14:54;;;;;;;14.75;2.17;;;5.90;99.90;;;;;;5056294;28;20049;-69
2023/12/30 07:17:20;;;;;;;15.82;1.73;;;5.90;99.90;;;;;;5060434;28;20037;-70
2023/12/30 07:19:45;;;;;;;14.98;1.80;;;5.90;99.90;;;;;;5060813;28;20393;-69
2023/12/30 07:22:12;;;;;;;13.05;1.75;;;5.90;99.90;;;;;;5057269;28;20032;-70
2023/12/30 07:24:38;;;;;;;10.98;2.50;;;5.80;99.90;;;;;;5057224;28;20042;-68
2023/12/30 07:27:08;;;;;;;16.73;1.67;;;5.80;99.90;;;;;;5058348;28;20044;-69
2023/12/30 07:29:34;;;;;;;17.65;2.72;;;5.80;99.90;;;;;;5058949;28;20025;-70
2023/12/30 07:32:00;;;;;;;11.32;2.35;;;5.80;99.90;;;;;;5059533;28;20044;-67
2023/12/30 07:34:26;;;;;;;13.73;1.88;;;5.80;99.90;;;;;;5060503;28;20071;-71
2023/12/30 07:36:52;;;;;;;12.20;2.17;;;5.80;99.90;;;;;;5060635;28;20033;-70
2023/12/30 07:39:17;;;;;;;21.40;2.50;;;5.80;99.90;;;;;;5061113;28;20035;-68
2023/12/30 07:41:43;;;;;;;14.30;1.90;;;5.80;99.90;;;;;;5060469;28;20025;-70
2023/12/30 07:44:08;;;;;;;14.32;2.00;;;5.80;99.90;;;;;;5062332;28;20017;-69
2023/12/30 07:46:34;;;;;;;16.10;2.20;;;5.80;99.90;;;;;;5062990;28;20021;-69
2023/12/30 07:48:59;;;;;;;13.65;1.80;;;5.90;99.90;;;;;;5063189;28;20032;-70
2023/12/30 07:51:25;;;;;;;13.10;1.77;;;5.90;99.90;;;;;;5062446;28;20072;-67
2023/12/30 07:53:51;;;;;;;26.23;2.35;;;5.90;99.90;;;;;;5060599;28;20025;-66
2023/12/30 07:56:16;;;;;;;9.73;1.88;;;5.90;99.90;;;;;;5060286;28;20055;-67
2023/12/30 07:58:42;;;;;;;13.02;2.75;;;5.90;99.90;;;;;;5053013;28;20056;-70
2023/12/30 08:01:08;;;;;;;25.27;2.55;;;5.90;99.90;;;;;;5055214;28;20497;-70
2023/12/30 08:03:34;;;;;;;17.38;1.90;;;5.90;99.90;;;;;;5061052;28;20045;-70
2023/12/30 08:05:59;;;;;;;15.13;2.22;;;5.90;99.90;;;;;;5062122;28;20024;-69
2023/12/30 08:08:25;;;;;;;17.70;2.42;;;5.90;99.90;;;;;;5061950;28;20036;-68
2023/12/30 08:10:50;;;;;;;16.83;2.33;;;5.90;99.90;;;;;;5060892;28;20024;-68
2023/12/30 08:13:16;;;;;;;11.60;2.17;;;5.90;99.90;;;;;;5054707;28;20071;-70
2023/12/30 08:15:42;;;;;;;15.77;1.90;;;5.90;99.90;;;;;;5059436;28;20025;-69
2023/12/30 08:18:08;;;;;;;13.00;2.08;;;5.90;99.90;;;;;;5057893;28;20044;-69
2023/12/30 08:20:33;;;;;;;16.45;2.30;;;5.90;99.90;;;;;;5061405;28;20029;-70
2023/12/30 08:22:59;;;;;;;8.95;1.85;;;5.90;99.90;;;;;;5060076;28;20436;-70
2023/12/30 08:25:24;;;;;;;17.45;1.95;;;5.90;99.90;;;;;;5057895;28;20037;-69
2023/12/30 08:27:50;;;;;;;16.05;2.63;;;5.90;99.90;;;;;;5059489;28;20025;-68
2023/12/30 08:30:15;;;;;;;11.50;2.03;;;6.00;99.90;;;;;;5059947;28;20063;-70
2023/12/30 08:32:41;;;;;;;17.70;2.80;;;5.90;99.90;;;;;;5059633;28;20055;-68
2023/12/30 08:35:08;;;;;;;15.48;1.90;;;6.00;99.90;;;;;;5057553;28;20029;-69
2023/12/30 08:37:35;;;;;;;15.32;2.45;;;6.00;99.90;;;;;;5059325;28;20044;-67
2023/12/30 08:40:05;;;;;;;13.07;2.20;;;6.00;99.90;;;;;;5061617;28;20047;-68
2023/12/30 08:42:34;;;;;;;26.73;2.70;;;6.10;99.90;;;;;;5060832;28;20087;-69
2023/12/30 08:45:00;;;;;;;14.00;2.35;;;6.10;99.90;;;;;;5060096;28;20028;-68
2023/12/30 08:47:28;;;;;;;16.88;2.70;;;6.10;99.90;;;;;;5058975;28;20068;-70
2023/12/30 08:49:54;;;;;;;17.48;2.83;;;6.10;99.90;;;;;;5061545;28;20017;-69
2023/12/30 08:52:19;;;;;;;11.60;2.22;;;6.20;99.90;;;;;;5057621;28;20049;-70
2023/12/30 08:54:45;;;;;;;21.80;2.28;;;6.20;99.90;;;;;;5061408;28;20037;-68
2023/12/30 08:57:11;;;;;;;11.70;2.70;;;6.20;99.90;;;;;;5058831;28;20067;-69
2023/12/30 08:59:37;;;;;;;13.68;2.35;;;6.20;99.90;;;;;;5059069;28;20040;-71
2023/12/30 09:02:03;;;;;;;18.08;2.22;;;6.30;99.90;;;;;;5058354;28;20029;-67
2023/12/30 09:04:28;;;;;;;16.23;2.08;;;6.30;99.90;;;;;;5058989;28;20025;-70
2023/12/30 09:06:55;;;;;;;8.52;1.42;;;6.40;99.90;;;;;;5058959;28;20051;-71
2023/12/30 09:09:20;;;;;;;12.80;2.13;;;6.40;99.90;;;;;;5057715;28;20028;-69
2023/12/30 09:11:46;;;;;;;16.08;2.28;;;6.40;99.90;;;;;;5058439;28;20033;-69
2023/12/30 09:14:11;;;;;;;9.27;1.73;;;6.40;99.90;;;;;;5056348;28;20075;-69
2023/12/30 09:16:37;;;;;;;15.10;2.85;;;6.50;99.90;;;;;;5057147;28;20017;-69
2023/12/30 09:19:03;;;;;;;18.02;2.13;;;6.50;99.90;;;;;;5060050;28;20095;-68
2023/12/30 09:21:29;;;;;;;11.88;2.20;;;6.50;99.90;;;;;;5058398;28;20060;-66
2023/12/30 09:23:55;;;;;;;13.75;3.17;;;6.60;99.90;;;;;;5057612;28;20033;-68
2023/12/30 09:26:21;;;;;;;15.85;1.80;;;6.50;99.90;;;;;;5056570;28;20706;-66
2023/12/30 09:28:46;;;;;;;10.68;1.85;;;6.60;99.90;;;;;;5058605;28;20037;-68
2023/12/30 09:31:12;;;;;;;24.05;2.60;;;6.60;99.90;;;;;;5055660;28;20025;-68
2023/12/30 09:33:38;;;;;;;17.25;2.67;;;6.60;99.90;;;;;;5057752;28;20096;-69
2023/12/30 09:36:04;;;;;;;13.82;2.58;;;6.60;99.90;;;;;;5056995;28;20021;-71
2023/12/30 09:38:30;;;;;;;15.27;2.10;;;6.70;99.90;;;;;;5059154;28;20062;-66
2023/12/30 09:40:55;;;;;;;19.70;2.42;;;6.70;99.90;;;;;;5058111;28;20072;-71
2023/12/30 09:43:24;;;;;;;13.75;2.15;;;6.70;99.90;;;;;;5058196;28;20150;-67
2023/12/30 09:45:51;;;;;;;12.13;1.77;;;6.70;99.90;;;;;;5055892;28;20021;-68
2023/12/30 09:48:20;;;;;;;20.80;2.85;;;6.80;99.90;;;;;;5054023;28;20035;-68
2023/12/30 09:50:49;;;;;;;11.43;2.47;;;6.80;99.90;;;;;;5058779;28;20017;-71
2023/12/30 09:53:16;;;;;;;15.48;2.25;;;6.80;99.90;;;;;;5054792;28;20041;-69
2023/12/30 09:55:44;;;;;;;11.75;1.88;;;6.80;99.90;;;;;;5058596;28;20428;-67
2023/12/30 09:58:10;;;;;;;17.70;2.38;;;6.90;99.90;;;;;;5056119;28;20017;-68
2023/12/30 10:00:40;;;;;;;20.10;2.55;;;6.90;99.90;;;;;;5050850;28;20614;-70
2023/12/30 10:03:06;;;;;;;14.93;2.10;;;7.00;99.90;;;;;;5056712;28;20064;-68
2023/12/30 10:05:32;;;;;;;16.95;2.40;;;7.00;99.90;;;;;;5054847;28;20069;-72
2023/12/30 10:07:58;;;;;;;15.30;2.92;;;7.00;99.90;;;;;;5056905;28;20082;-67
2023/12/30 10:10:43;;;;;;;9.93;3.22;;;7.10;99.90;;;;;;5056454;28;20021;-69
2023/12/30 10:13:10;;;;;;;11.55;2.30;;;7.30;99.90;;;;;;5056611;28;20056;-68
2023/12/30 10:15:35;;;;;;;17.40;2.88;;;7.50;99.90;;;;;;5057285;28;20092;-69
2023/12/30 10:18:03;;;;;;;14.57;2.45;;;7.70;99.90;;;;;;5058957;28;20075;-70
2023/12/30 10:20:29;;;;;;;12.27;2.22;;;8.00;99.90;;;;;;5058028;28;20048;-69
2023/12/30 10:22:56;;;;;;;11.20;2.20;;;8.00;99.90;;;;;;5057186;28;20025;-68
2023/12/30 10:25:21;;;;;;;7.65;1.50;;;8.10;99.90;;;;;;5055926;28;20060;-68
2023/12/30 10:27:48;;;;;;;13.40;2.15;;;8.10;99.90;;;;;;5056739;28;20482;-71
2023/12/30 10:30:19;;;;;;;17.30;2.25;;;8.20;99.90;;;;;;5057266;28;20017;-69
2023/12/30 10:32:46;;;;;;;16.20;2.63;;;8.30;99.90;;;;;;5058638;28;20072;-69
2023/12/30 10:35:15;;;;;;;10.05;2.35;;;8.30;99.90;;;;;;5058227;28;20044;-69
2023/12/30 10:37:44;;;;;;;10.00;1.98;;;8.40;99.90;;;;;;5058706;28;20060;-68
2023/12/30 10:40:10;;;;;;;13.70;2.58;;;8.50;99.90;;;;;;5057205;28;20025;-70
2023/12/30 10:42:42;;;;;;;12.82;2.38;;;8.60;99.90;;;;;;5058271;28;20037;-68
2023/12/30 10:45:11;;;;;;;11.55;2.08;;;8.70;99.90;;;;;;5053636;28;20040;-69
2023/12/30 10:47:43;;;;;;;12.18;2.78;;;8.70;99.90;;;;;;5054070;28;20029;-68
2023/12/30 10:50:09;;;;;;;11.93;2.90;;;8.80;99.90;;;;;;5058214;28;20488;-68
2023/12/30 10:52:44;;;;;;;16.73;2.97;;;8.80;99.90;;;;;;5060198;28;20072;-66
2023/12/30 10:55:10;;;;;;;;;;;8.90;99.90;;;;;;5061159;28;20050;-70
2023/12/30 10:57:42;;;;;;;11.20;2.85;;;9.00;99.90;;;;;;5060664;28;19956;-72
2023/12/30 11:00:09;;;;;;;13.75;2.45;;;9.00;99.90;;;;;;5061504;28;20079;-68
2023/12/30 11:02:39;;;;;;;12.23;2.00;;;9.10;99.90;;;;;;5060627;28;20379;-68
2023/12/30 11:05:14;;;;;;;14.73;2.22;;;9.10;99.90;;;;;;5061052;28;20025;-68
2023/12/30 11:07:40;;;;;;;8.63;2.00;;;9.10;99.90;;;;;;5060591;28;20039;-68
2023/12/30 11:10:16;;;;;;;8.30;2.05;;;9.20;99.90;;;;;;5061861;28;20033;-70
2023/12/30 11:12:42;;;;;;;14.05;3.00;;;9.30;99.90;;;;;;5059750;28;20033;-68
2023/12/30 11:15:28;;;;;;;12.02;3.28;;;9.40;99.90;;;;;;5059879;28;20033;-70
2023/12/30 11:17:56;;;;;;;11.25;2.22;;;9.80;99.90;;;;;;5060066;28;20040;-69
2023/12/30 11:20:32;;;;;;;14.65;2.25;;;10.00;99.90;;;;;;5059944;28;20028;-67
2023/12/30 11:23:03;;;;;;;11.73;2.05;;;10.00;99.90;;;;;;5060684;28;20072;-67
2023/12/30 11:25:47;;;;;;;11.13;2.20;;;10.30;99.90;;;;;;5059402;28;20123;-69
2023/12/30 11:28:20;;;;;;;16.20;2.67;;;10.40;99.90;;;;;;5061019;28;20037;-69
2023/12/30 11:30:55;;;;;;;19.83;2.92;;;10.50;99.90;;;;;;5060860;28;20040;-68
2023/12/30 11:33:21;;;;;;;9.32;1.15;;;10.70;99.90;;;;;;5060872;28;20048;-73
2023/12/30 11:35:51;;;;;;;12.15;2.20;;;10.90;99.90;;;;;;5060938;28;20033;-69
2023/12/30 11:38:18;;;;;;;10.18;2.20;;;10.90;99.90;;;;;;5061212;28;20028;-68
2023/12/30 11:40:49;;;;;;;11.50;2.03;;;11.00;99.90;;;;;;5060404;28;20021;-68
2023/12/30 11:43:15;;;;;;;11.40;2.05;;;11.00;99.90;;;;;;5060595;28;21267;-69
2023/12/30 11:45:41;;;;;;;17.42;2.47;;;11.00;99.90;;;;;;5059893;28;20025;-68
2023/12/30 11:48:06;;;;;;;13.85;3.13;;;10.90;99.90;;;;;;5061466;28;20494;-68
2023/12/30 11:50:32;;;;;;;18.50;2.78;;;10.80;99.90;;;;;;5060926;28;20104;-67
2023/12/30 11:52:59;;;;;;;10.18;2.53;;;10.70;99.90;;;;;;5060831;28;20041;-68
2023/12/30 11:55:25;;;;;;;9.25;2.05;;;10.70;99.90;;;;;;5060605;28;20024;-68
2023/12/30 11:57:51;;;;;;;15.90;2.30;;;10.50;99.90;;;;;;5060124;28;20060;-69
2023/12/30 12:00:17;;;;;;;13.73;2.58;;;10.20;99.90;;;;;;5060435;28;20037;-67
2023/12/30 12:02:43;;;;;;;16.42;2.33;;;10.00;99.90;;;;;;5058588;28;20045;-67
2023/12/30 12:05:08;;;;;;;17.20;2.28;;;9.70;99.90;;;;;;5060619;28;20062;-68
2023/12/30 12:07:34;;;;;;;11.07;2.22;;;9.60;99.90;;;;;;5059632;28;20041;-70
2023/12/30 12:10:00;;;;;;;16.63;2.30;;;9.60;99.90;;;;;;5060885;28;20029;-69
2023/12/30 12:12:37;;;;;;;16.33;2.53;;;9.60;99.90;;;;;;5058663;28;20067;-70
2023/12/30 12:15:04;;;;;;;12.07;1.95;;;9.50;99.90;;;;;;5059426;28;20059;-69
2023/12/30 12:17:30;;;;;;;16.17;2.75;;;9.50;99.90;;;;;;5060567;28;20538;-70
2023/12/30 12:19:56;;;;;;;10.82;2.03;;;9.50;99.90;;;;;;5058290;28;20025;-70
2023/12/30 12:22:22;;;;;;;10.57;2.30;;;9.40;99.90;;;;;;5059327;28;20032;-72
2023/12/30 12:24:48;;;;;;;12.13;2.58;;;9.30;99.90;;;;;;5059534;28;20028;-69
2023/12/30 12:27:23;;;;;;;9.82;2.40;;;9.30;99.90;;;;;;5058949;28;20136;-68
2023/12/30 12:29:50;;;;;;;11.23;2.42;;;9.30;99.90;;;;;;5059283;28;20040;-70
2023/12/30 12:32:21;;;;;;;16.02;2.53;;;9.50;99.90;;;;;;5057641;28;20437;-68
2023/12/30 12:34:47;;;;;;;15.52;2.65;;;9.70;99.90;;;;;;5062067;28;20055;-69
2023/12/30 12:37:15;;;;;;;16.02;3.40;;;9.90;99.90;;;;;;5060514;28;20028;-70
2023/12/30 12:39:45;;;;;;;13.25;2.75;;;9.90;99.90;;;;;;5060860;28;20033;-69
2023/12/30 12:42:11;;;;;;;13.73;2.97;;;9.80;99.90;;;;;;5059920;28;20032;-70
2023/12/30 12:44:38;;;;;;;11.20;2.75;;;9.80;99.90;;;;;;5058261;28;20013;-69
2023/12/30 12:47:04;;;;;;;12.20;2.47;;;9.80;99.90;;;;;;5058868;28;20037;-68